createdAt,value
2022-10-05T00:04:32.602Z,11.735785953177258
2022-10-05T00:17:44.051Z,11.949832775919733
2022-10-05T00:28:37.578Z,12.130434782608695
2022-10-05T00:35:05.041Z,13.013377926421406
2022-10-05T00:43:03.222Z,12.709030100334449
2022-10-05T00:49:54.936Z,12.698996655518394
2022-10-05T00:56:24.142Z,13.160535117056856
2022-10-05T01:02:52.283Z,13.357859531772576
2022-10-05T01:09:21.784Z,12.471571906354516
2022-10-05T01:15:50.909Z,13.297658862876254
2022-10-05T01:33:29.376Z,13.51505016722408
2022-10-05T01:40:10.866Z,13.210702341137123
2022-10-05T01:46:39.558Z,13.190635451505017
2022-10-05T01:53:10.688Z,14.394648829431437
2022-10-05T01:59:39.885Z,13.819397993311037
2022-10-05T02:06:07.306Z,14.923076923076923
2022-10-05T02:13:45.897Z,13.806020066889632
2022-10-05T02:20:14.563Z,13.722408026755852
2022-10-05T02:26:42.743Z,13.237458193979933
2022-10-05T02:38:01.252Z,13.438127090301004
2022-10-05T02:44:29.380Z,13.274247491638796
2022-10-05T02:50:57.051Z,13.77257525083612
2022-10-05T03:03:38.693Z,14.036789297658864
2022-10-05T03:10:42.456Z,14.45819397993311
2022-10-05T03:17:11.257Z,14.468227424749164
2022-10-05T03:28:40.284Z,15.02675585284281
2022-10-05T03:35:21.018Z,14.96989966555184
2022-10-05T03:44:08.725Z,15.62541806020067
2022-10-05T03:50:39.053Z,15.903010033444817
2022-10-05T03:57:11.757Z,15.77257525083612
2022-10-05T04:03:42.966Z,15.876254180602007
2022-10-05T04:10:30.406Z,16.073578595317727
2022-10-05T04:17:02.120Z,16.555183946488295
2022-10-05T04:23:42.184Z,17.254180602006688
2022-10-05T04:31:46.397Z,17.02006688963211
2022-10-05T04:38:19.935Z,17.929765886287626
2022-10-05T04:59:00.073Z,19.254180602006688
2022-10-05T05:05:29.636Z,20.909698996655518
2022-10-05T05:11:58.349Z,21.073578595317727
2022-10-05T05:24:52.968Z,20.96655518394649
2022-10-05T05:31:21.951Z,21.67558528428094
2022-10-05T05:41:58.384Z,21.05351170568562
2022-10-05T05:48:26.727Z,22.11371237458194
2022-10-05T05:59:58.334Z,21.36454849498328
2022-10-05T06:06:25.952Z,20.74916387959866
2022-10-05T06:12:53.408Z,20.956521739130434
2022-10-05T06:19:20.750Z,21.622073578595316
2022-10-05T06:32:06.581Z,20.076923076923077
2022-10-05T06:38:59.998Z,20.016722408026755
2022-10-05T06:45:27.395Z,20.792642140468228
2022-10-05T06:57:19.274Z,19.759197324414714
2022-10-05T07:03:46.373Z,18.672240802675585
2022-10-05T07:10:13.705Z,19.37123745819398
2022-10-05T07:16:41.086Z,18.678929765886288
2022-10-05T07:23:10.128Z,18.899665551839465
2022-10-05T07:29:40.554Z,18.160535117056856
2022-10-05T07:36:09.798Z,19.983277591973245
2022-10-05T07:42:47.392Z,19.25752508361204
2022-10-05T07:56:29.441Z,18.812709030100333
2022-10-05T08:03:00.582Z,17.444816053511705
2022-10-05T08:09:27.550Z,17.00334448160535
2022-10-05T08:15:54.694Z,15.765886287625419
2022-10-05T08:22:23.311Z,16.076923076923077
2022-10-05T08:29:00.793Z,15.210702341137123
2022-10-05T08:35:27.905Z,14.441471571906355
2022-10-05T08:47:03.677Z,14.290969899665551
2022-10-05T08:53:32.711Z,14.588628762541806
2022-10-05T09:00:35.990Z,15.602006688963211
2022-10-05T09:07:03.281Z,16.85284280936455
2022-10-05T09:13:33.198Z,15.692307692307692
2022-10-05T09:20:07.401Z,14.448160535117056
2022-10-05T09:26:46.712Z,14.91638795986622
2022-10-05T09:33:14.063Z,14.983277591973245
2022-10-05T09:39:45.089Z,15.37458193979933
2022-10-05T09:46:34.732Z,16.180602006688964
2022-10-05T09:53:08.217Z,15.367892976588628
2022-10-05T10:08:13.764Z,13.384615384615385
2022-10-05T10:14:42.378Z,12.334448160535118
2022-10-05T10:21:13.078Z,11.394648829431437
2022-10-05T10:30:16.687Z,10.869565217391305
2022-10-05T10:36:47.026Z,10.856187290969899
2022-10-05T10:43:20.420Z,9.578595317725753
2022-10-05T10:49:50.393Z,9.270903010033445
2022-10-05T11:02:13.824Z,7.2675585284280935
2022-10-05T11:13:44.565Z,6.260869565217392
2022-10-05T11:20:12.424Z,6.351170568561873
2022-10-05T11:26:53.794Z,6.789297658862877
2022-10-05T11:34:20.869Z,6.31438127090301
2022-10-05T11:44:07.096Z,6.832775919732441
2022-10-05T11:50:34.326Z,5.722408026755853
2022-10-05T11:57:02.438Z,5.535117056856187
2022-10-05T12:06:04.195Z,4.933110367892977
2022-10-05T12:17:04.253Z,4.521739130434782
2022-10-05T12:23:33.093Z,5.05685618729097
2022-10-05T12:30:07.130Z,6.2207357859531776
2022-10-05T12:41:09.792Z,6.030100334448161
2022-10-05T12:47:37.580Z,6.712374581939799
2022-10-05T13:00:28.083Z,7.364548494983278
2022-10-05T13:08:25.122Z,8.073578595317725
2022-10-05T13:14:53.431Z,8.605351170568563
2022-10-05T13:21:21.514Z,8.725752508361204
2022-10-05T13:28:01.221Z,9.127090301003344
2022-10-05T13:44:22.280Z,9.290969899665551
2022-10-05T13:50:50.321Z,9.280936454849499
2022-10-05T13:57:19.629Z,10.531772575250836
2022-10-05T14:15:56.373Z,10.45819397993311
2022-10-05T14:22:26.853Z,10.846153846153847
2022-10-05T14:30:39.397Z,11.334448160535118
2022-10-05T14:37:25.338Z,11.070234113712374
2022-10-05T14:43:56.361Z,10.307692307692308
2022-10-05T14:50:27.713Z,10.652173913043478
2022-10-05T14:56:57.917Z,10.40133779264214
2022-10-05T15:03:28.701Z,10.765886287625419
2022-10-05T15:09:59.144Z,10.852842809364548
2022-10-05T15:16:29.245Z,10.34448160535117
2022-10-05T15:23:05.396Z,11.153846153846153
2022-10-05T15:34:32.328Z,11.575250836120402
2022-10-05T15:41:01.936Z,11.08361204013378
2022-10-05T15:52:55.326Z,10.879598662207357
2022-10-05T15:59:26.098Z,10.903010033444817
2022-10-05T16:05:56.971Z,11.143812709030101
2022-10-05T16:12:28.952Z,11.852842809364548
2022-10-05T16:26:58.925Z,12.180602006688963
2022-10-05T16:33:26.347Z,10.408026755852843
2022-10-05T16:39:54.495Z,9.672240802675585
2022-10-05T16:46:27.510Z,8.996655518394649
2022-10-05T16:57:28.006Z,7.6923076923076925
2022-10-05T17:03:55.269Z,7.441471571906354
2022-10-05T17:13:16.715Z,6.8595317725752505
2022-10-05T17:19:45.731Z,8.063545150501673
2022-10-05T17:26:14.036Z,7.304347826086956
2022-10-05T17:32:53.652Z,6.545150501672241
2022-10-05T17:39:22.269Z,6.344481605351171
2022-10-05T17:45:49.922Z,6.451505016722408
2022-10-05T17:52:17.075Z,6.531772575250836
2022-10-05T17:58:44.450Z,6.785953177257525
2022-10-05T18:05:11.545Z,7.1003344481605355
2022-10-05T18:18:41.781Z,7.986622073578595
2022-10-05T18:25:09.093Z,7.277591973244147
2022-10-05T18:31:42.862Z,7.464882943143813
2022-10-05T18:42:09.481Z,6.909698996655519
2022-10-05T18:48:38.545Z,6.9397993311036785
2022-10-05T18:55:08.275Z,7.635451505016722
2022-10-05T19:01:45.787Z,7.016722408026756
2022-10-05T19:08:18.687Z,7.2040133779264215
2022-10-05T19:14:49.805Z,7.090301003344481
2022-10-05T19:21:18.107Z,6.1438127090301
2022-10-05T19:27:49.743Z,6.802675585284281
2022-10-05T19:38:01.900Z,6.565217391304348
2022-10-05T19:44:31.099Z,5.735785953177258
2022-10-05T19:59:58.622Z,6.006688963210703
2022-10-05T20:06:26.757Z,5.016722408026756
2022-10-05T20:12:55.227Z,3.4548494983277593
2022-10-05T20:19:24.969Z,2.8461538461538463
2022-10-05T20:27:25.253Z,3.180602006688963
2022-10-05T20:34:01.032Z,2.4782608695652173
2022-10-05T20:40:29.394Z,2.739130434782609
2022-10-05T20:52:13.311Z,2.698996655518395
2022-10-05T20:58:40.977Z,2.3076923076923075
2022-10-05T21:12:15.743Z,2.4381270903010033
2022-10-05T21:18:43.466Z,2.210702341137124
2022-10-05T21:27:23.519Z,2.5050167224080266
2022-10-05T21:40:10.712Z,2.842809364548495
2022-10-05T21:46:39.677Z,2.3979933110367893
2022-10-05T21:53:07.589Z,2.5150501672240804
2022-10-05T22:05:55.165Z,2.7558528428093645
2022-10-05T22:12:31.613Z,2.9264214046822743
2022-10-05T22:18:59.488Z,2.859531772575251
2022-10-05T22:25:27.836Z,3.217391304347826
2022-10-05T22:33:59.207Z,0.2408026755852843
2022-10-05T22:40:27.184Z,0.05016722408026756
2022-10-05T22:46:55.103Z,0.043478260869565216
2022-10-05T22:53:30.167Z,0.10702341137123746
2022-10-05T22:59:57.511Z,0.010033444816053512
2022-10-05T23:06:28.215Z,0.006688963210702341
2022-10-05T23:13:00.491Z,0.0
2022-10-05T23:19:28.690Z,0.013377926421404682
2022-10-05T23:25:56.050Z,0.020066889632107024
2022-10-05T23:32:32.008Z,0.006688963210702341
2022-10-05T23:38:59.163Z,0.0
2022-10-05T23:45:26.506Z,0.013377926421404682
2022-10-05T23:51:53.716Z,0.1605351170568562
2022-10-05T23:58:21.632Z,0.023411371237458192
